Historyczne dane pomiarowe

Dodano dane terminowe – wersja testowa.

Dane z okresu 1951-2019

Wersja bazy: 1.34 [2019-03-16, lista zmian], aktualizacja planowana na 2019-04-15

Dane meteo z obszaru Polski uzyskane na podstawie danych udostępnionych przez Instytut Meteorologii i Gospodarki Wodnej – Państwowy Instytut Badawczy.

 

Wybierz Datę:    

       

TemperaturaWilgotnośćWiatrCiśnienieOpadyŚniegCzas trwania zjawisk
 Stacja t tx tn tng RH VA  wxwx mslp ppp RRR   cm mm wxwxwxwxwxwxwx
2018-03-18 -7.3 -4.0 -9.9-11.4-- 6.0----- 0.0-- 4---------
2018-03-19 -7.2 -4.1-10.7-12.7-- 6.3----- 0.0-- 4---------
2018-03-20 -2.3 1.3 -4.5 -5.7-- 7.3----- 1.0-- 4---------
2018-03-21 -1.4 1.7 -3.6 -7.8-- 3.3----- 0.0-- 4---------
2018-03-22 -0.1 3.6 -3.3 -7.1-- 7.7----- 0.1------------
2018-03-23 1.7 3.4 1.0 -1.8-- 8.0----- 0.1------------
2018-03-24 2.8 6.4 0.5 -1.0-- 8.0----- 0.0------------
2018-03-25 2.6 6.5 -0.4 -3.2-- 1.3----- 0.0------------
2018-03-26 4.1 6.6 1.9 -0.5-- 7.3----- 0.0------------
2018-03-27 2.7 4.7 1.5 1.0-- 8.0----- 0.1------------
2018-03-28 3.2 8.4 -0.7 -3.3-- 8.0----- 0.4------------
2018-03-29 7.1 9.1 5.6 2.9-- 8.0----- 0.0------------
2018-03-30 7.2 12.4 2.7 -0.3-- 4.7----- 0.0------------
2018-03-31 8.7 11.9 6.4 4.6-- 8.0----- 2.4------------
2018-04-01 4.7 9.3 2.9 1.6-- 8.0----- 0.0------------
2018-04-02 5.5 9.7 1.8 -0.5-- 3.0----- 0.0------------
2018-04-03 11.6 19.5 3.3 -0.4-- 7.0----- 0.0------------
2018-04-04 14.9 20.5 10.8 5.4-- 6.7----- 0.0------------
2018-04-05 12.5 16.5 9.2 6.3-- 5.7----- 0.0------------
2018-04-06 7.5 14.0 4.0 3.1-- 0.7----- 0.0------------
2018-04-07 9.0 18.0 -0.7 -3.9-- 2.3----- 0.0------------
2018-04-08 13.1 20.4 6.9 2.5-- 4.3----- 0.0------------
2018-04-09 18.1 24.4 12.8 7.4-- 0.3----- 0.0------------
2018-04-10 14.5 21.0 8.9 5.3-- 4.0----- 0.0------------
2018-04-11 13.5 20.3 7.8 5.3-- 6.3----- 0.0------------
2018-04-12 15.9 25.3 7.2 3.6-- 5.3----- 1.3------------
2018-04-13 14.8 20.3 11.8 9.8-- 7.0----- 1.2------------
2018-04-14 12.1 19.9 1.7 6.3-- 6.0----- 0.0------------
2018-04-15 14.1 24.6 4.6 1.9-- 7.3----- 3.0------------
2018-04-16 15.7 19.7 14.0 12.7-- 8.0----- 1.8------------
100.4 ms

 

Źródłem pochodzenia danych jest Instytut Meteorologii i Gospodarki Wodnej – Państwowy Instytut Badawczy. Dane Instytutu Meteorologii i Gospodarki Wodnej – Państwowego Instytutu Badawczego zostały przetworzone.

Dane źródłowe można odnaleźć na stronie https://dane.imgw.pl